createdAt,value
2023-08-11T00:02:00.625Z,99.9
2023-08-11T00:06:02.839Z,99.9
2023-08-11T00:08:03.920Z,99.9
2023-08-11T00:12:06.136Z,99.9
2023-08-11T00:14:07.201Z,99.9
2023-08-11T00:16:11.573Z,99.9
2023-08-11T00:22:14.748Z,99.9
2023-08-11T00:24:15.851Z,99.9
2023-08-11T00:26:16.965Z,99.9
2023-08-11T00:30:22.316Z,99.9
2023-08-11T00:34:24.503Z,99.9
2023-08-11T00:36:25.606Z,99.9
2023-08-11T00:38:26.738Z,99.9
2023-08-11T00:40:27.851Z,99.9
2023-08-11T00:44:33.221Z,99.9
2023-08-11T00:49:37.539Z,99.9
2023-08-11T00:51:38.652Z,99.9
2023-08-11T00:53:39.750Z,99.9
2023-08-11T00:55:40.869Z,99.9
2023-08-11T00:57:45.191Z,99.9
2023-08-11T00:59:46.293Z,99.9
2023-08-11T01:01:47.385Z,99.9
2023-08-11T01:03:48.524Z,99.9
2023-08-11T01:07:50.681Z,99.9
2023-08-11T01:09:51.783Z,99.9
2023-08-11T01:11:56.059Z,99.9
2023-08-11T01:13:57.153Z,99.9
2023-08-11T01:15:58.269Z,99.9
2023-08-11T01:17:59.414Z,99.9
2023-08-11T01:20:00.454Z,99.9
2023-08-11T01:22:01.569Z,99.9
2023-08-11T01:24:02.643Z,99.9
2023-08-11T01:26:06.935Z,99.9
2023-08-11T01:28:08.030Z,99.9
2023-08-11T01:32:10.228Z,99.9
2023-08-11T01:46:48.070Z,99.9
2023-08-11T01:50:50.194Z,99.9
2023-08-11T01:56:56.691Z,99.9
2023-08-11T01:58:57.782Z,99.9
2023-08-11T02:00:58.880Z,99.9
2023-08-11T02:03:00.247Z,99.9
2023-08-11T02:05:01.082Z,99.9
2023-08-11T02:11:09.062Z,99.9
2023-08-11T02:19:13.456Z,99.9
2023-08-11T02:29:22.136Z,99.9
2023-08-11T02:31:23.101Z,99.9
2023-08-11T02:39:30.668Z,99.9
2023-08-11T02:40:32.842Z,99.9
2023-08-11T02:42:33.956Z,99.9
2023-08-11T02:44:35.049Z,99.9
2023-08-11T02:58:46.010Z,99.9
2023-08-11T03:00:47.136Z,99.9
2023-08-11T03:02:51.522Z,99.9
2023-08-11T03:06:53.647Z,99.9
2023-08-11T03:08:54.748Z,99.9
2023-08-11T03:10:57.063Z,99.9
2023-08-11T03:12:56.942Z,99.9
2023-08-11T03:14:58.074Z,99.9
2023-08-11T03:17:02.362Z,99.9
2023-08-11T03:19:03.529Z,99.9
2023-08-11T03:21:18.732Z,99.9
2023-08-11T03:23:05.687Z,99.9
2023-08-11T03:25:06.794Z,99.9
2023-08-11T03:27:07.917Z,99.9
2023-08-11T03:29:09.025Z,99.9
2023-08-11T03:31:13.317Z,99.9
2023-08-11T03:33:16.109Z,99.9
2023-08-11T03:35:15.552Z,99.9
2023-08-11T03:36:17.701Z,99.9
2023-08-11T03:38:18.799Z,99.9
2023-08-11T03:40:19.934Z,99.9
2023-08-11T03:44:25.335Z,99.9
2023-08-11T03:46:26.517Z,99.9
2023-08-11T03:48:27.576Z,99.9
2023-08-11T03:50:28.659Z,99.9
2023-08-11T03:52:29.786Z,99.9
2023-08-11T03:54:43.456Z,99.9
2023-08-11T03:56:31.999Z,99.9
2023-08-11T03:58:36.300Z,99.9
2023-08-11T04:00:37.438Z,99.9
2023-08-11T04:02:38.645Z,99.9
2023-08-11T04:04:39.638Z,99.9
2023-08-11T04:10:42.977Z,99.9
2023-08-11T04:14:48.420Z,99.9
2023-08-11T04:16:49.544Z,99.9
2023-08-11T04:20:51.758Z,99.9
2023-08-11T04:26:58.371Z,99.9
2023-08-11T04:31:00.635Z,99.9
2023-08-11T04:32:02.754Z,99.9
2023-08-11T04:38:06.088Z,99.9
2023-08-11T04:42:11.506Z,99.9
2023-08-11T04:46:13.784Z,99.9
2023-08-11T04:48:14.834Z,99.9
2023-08-11T04:50:15.938Z,99.9
2023-08-11T04:54:21.344Z,99.9
2023-08-11T04:56:22.447Z,99.9
2023-08-11T05:00:24.687Z,99.9
2023-08-11T05:02:25.818Z,99.9
2023-08-11T05:04:26.921Z,99.9
2023-08-11T05:06:28.092Z,99.9
2023-08-11T05:08:32.379Z,99.9
2023-08-11T05:10:33.445Z,99.9
2023-08-11T05:12:34.547Z,99.9
2023-08-11T05:14:35.675Z,99.9
2023-08-11T05:20:38.984Z,99.9
2023-08-11T05:33:15.707Z,99.9
2023-08-11T05:49:30.927Z,99.9
2023-08-11T05:55:34.279Z,99.9
2023-08-11T05:57:35.337Z,99.9
2023-08-11T06:13:47.320Z,99.9
2023-08-11T06:15:48.509Z,99.9
2023-08-11T06:17:52.714Z,99.9
2023-08-11T06:21:54.912Z,99.9
2023-08-11T06:22:57.020Z,99.9
2023-08-11T06:24:58.108Z,99.9
2023-08-11T06:26:59.203Z,99.9
2023-08-11T06:33:05.804Z,99.9
2023-08-11T06:37:08.087Z,99.9
2023-08-11T06:39:08.968Z,99.9
2023-08-11T06:41:10.049Z,99.9
2023-08-11T06:43:11.158Z,99.9
2023-08-11T06:45:15.405Z,99.9
2023-08-11T06:47:16.495Z,99.9
2023-08-11T06:49:17.560Z,99.9
2023-08-11T07:05:29.373Z,99.9
2023-08-11T07:07:30.461Z,99.9
2023-08-11T07:13:36.872Z,99.9
2023-08-11T07:15:39.154Z,99.9
2023-08-11T07:17:39.108Z,99.9
2023-08-11T07:18:41.162Z,99.9
2023-08-11T07:20:42.215Z,99.9
2023-08-11T07:22:43.286Z,99.9
2023-08-11T07:24:44.318Z,99.9
2023-08-11T07:26:48.581Z,99.9
2023-08-11T07:28:49.647Z,99.9
2023-08-11T07:30:50.717Z,99.9
2023-08-11T07:32:53.143Z,99.9
2023-08-11T07:34:52.812Z,99.9
2023-08-11T07:36:53.895Z,99.9
2023-08-11T07:39:00.204Z,99.9
2023-08-11T07:40:59.179Z,99.9
2023-08-11T07:43:00.231Z,99.9
2023-08-11T07:45:01.277Z,99.9
2023-08-11T07:47:02.322Z,99.9
2023-08-11T07:51:04.391Z,99.9
2023-08-11T07:53:05.460Z,99.9
2023-08-11T07:57:12.227Z,99.9
2023-08-11T08:01:14.240Z,99.9
2023-08-11T08:03:17.350Z,99.9
2023-08-11T08:05:16.253Z,99.9
2023-08-11T08:09:21.404Z,99.9
2023-08-11T08:11:22.399Z,99.9
2023-08-11T08:14:25.445Z,99.9
2023-08-11T08:16:26.396Z,99.9
2023-08-11T08:18:27.356Z,99.9
2023-08-11T08:20:28.293Z,99.9
2023-08-11T08:22:32.440Z,99.9
2023-08-11T08:24:33.384Z,99.9
2023-08-11T08:26:34.303Z,99.9
2023-08-11T08:28:35.197Z,99.9
2023-08-11T08:30:36.129Z,99.9
2023-08-11T08:32:37.048Z,99.9
2023-08-11T08:36:42.046Z,99.9
2023-08-11T08:40:43.844Z,99.9
2023-08-11T08:42:44.734Z,99.9
2023-08-11T08:48:41.526Z,99.9
2023-08-11T08:52:46.490Z,99.9
2023-08-11T08:54:47.355Z,99.9
2023-08-11T08:56:48.228Z,99.9
2023-08-11T08:58:49.070Z,99.9
2023-08-11T09:00:49.939Z,99.9
2023-08-11T09:06:55.701Z,99.9
2023-08-11T09:08:56.547Z,99.9
2023-08-11T09:13:24.939Z,99.7
2023-08-11T09:15:25.840Z,99.7
2023-08-11T09:17:29.908Z,99.6
2023-08-11T09:19:30.626Z,99.6
2023-08-11T09:25:33.025Z,99.5
2023-08-11T09:29:34.643Z,99.5
2023-08-11T09:33:39.464Z,99.2
2023-08-11T09:35:40.245Z,98.9
2023-08-11T09:37:43.458Z,98.5
2023-08-11T09:39:41.824Z,98.2
2023-08-11T09:41:42.612Z,98.2
2023-08-11T09:43:43.418Z,98.1
2023-08-11T09:51:49.698Z,96.9
2023-08-11T09:53:50.565Z,96.2
2023-08-11T09:57:51.964Z,84.7
2023-08-11T09:59:56.643Z,78.9
2023-08-11T10:01:57.521Z,79.2
2023-08-11T10:07:00.866Z,77.5
2023-08-11T10:09:01.610Z,76.8
2023-08-11T10:11:02.360Z,74.7
2023-08-11T10:13:06.330Z,74.6
2023-08-11T10:19:08.527Z,73.9
2023-08-11T10:23:10.000Z,74.1
2023-08-11T10:35:17.761Z,73.1
2023-08-11T10:37:18.533Z,72
2023-08-11T10:39:19.264Z,71.1
2023-08-11T10:41:23.259Z,70.3
2023-08-11T10:45:26.132Z,68.5
2023-08-11T10:49:26.243Z,68.2
2023-08-11T10:51:26.957Z,67.7
2023-08-11T10:53:27.701Z,66.1
2023-08-11T10:59:32.985Z,64.5
2023-08-11T11:00:34.973Z,64.5
2023-08-11T11:02:35.768Z,64.5
2023-08-11T11:06:37.098Z,64.8
2023-08-11T11:08:40.954Z,65
2023-08-11T11:10:49.830Z,64.1
2023-08-11T11:20:45.131Z,61.1
2023-08-11T11:30:51.854Z,59.9
2023-08-11T11:40:58.540Z,59.9
2023-08-11T11:42:59.256Z,60
2023-08-11T11:45:02.323Z,58.7
2023-08-11T11:49:03.359Z,56.4
2023-08-11T11:51:05.253Z,55.1
2023-08-11T11:53:05.924Z,55
2023-08-11T11:56:08.482Z,54.5
2023-08-11T11:58:09.139Z,53.6
2023-08-11T12:00:09.787Z,53.6
2023-08-11T12:02:10.823Z,53.9
2023-08-11T12:04:14.351Z,54.8
2023-08-11T12:06:14.856Z,56.4
2023-08-11T12:08:15.520Z,57.5
2023-08-11T12:10:16.186Z,59.1
2023-08-11T12:12:16.792Z,60.3
2023-08-11T12:20:22.801Z,62.4
2023-08-11T12:22:23.484Z,62.7
2023-08-11T12:24:24.213Z,63
2023-08-11T12:26:24.910Z,64.7
2023-08-11T12:28:25.603Z,64.9
2023-08-11T12:30:26.300Z,65.2
2023-08-11T12:32:30.294Z,65.4
2023-08-11T12:34:30.980Z,65.3
2023-08-11T12:36:31.700Z,65.5
2023-08-11T12:38:32.387Z,65.5
2023-08-11T12:40:33.104Z,65.6
2023-08-11T12:44:34.540Z,66
2023-08-11T12:46:38.647Z,66.7
2023-08-11T12:48:39.240Z,66.7
2023-08-11T12:50:39.985Z,66.6
2023-08-11T12:53:07.482Z,66.5
2023-08-11T13:03:14.488Z,65.2
2023-08-11T13:05:15.112Z,66.9
2023-08-11T13:09:16.571Z,67.9
2023-08-11T13:11:17.314Z,68.4
2023-08-11T13:13:21.265Z,68.7
2023-08-11T13:15:21.998Z,69
2023-08-11T13:17:22.739Z,69
2023-08-11T13:19:23.463Z,69
2023-08-11T13:21:24.222Z,68.8
2023-08-11T13:23:24.929Z,69
2023-08-11T13:25:25.691Z,69.3
2023-08-11T13:27:29.656Z,70.3
2023-08-11T13:41:38.107Z,71.4
2023-08-11T13:43:38.818Z,71
2023-08-11T13:45:41.154Z,70.9
2023-08-11T13:46:43.053Z,71
2023-08-11T13:50:44.577Z,71.8
2023-08-11T13:52:45.296Z,72.3
2023-08-11T13:54:49.285Z,74
2023-08-11T13:56:50.039Z,74.3
2023-08-11T13:58:50.784Z,75.2
2023-08-11T14:00:51.660Z,75.8
2023-08-11T14:02:52.325Z,75.5
2023-08-11T14:06:53.819Z,74.7
2023-08-11T14:08:57.790Z,76.4
2023-08-11T14:10:58.548Z,76.6
2023-08-11T14:12:59.326Z,76.6
2023-08-11T14:15:00.072Z,77.1
2023-08-11T14:17:00.807Z,77
2023-08-11T14:19:01.570Z,76.9
2023-08-11T14:21:02.301Z,76.7
2023-08-11T14:23:06.304Z,77
2023-08-11T14:27:07.780Z,77.5
2023-08-11T14:33:10.095Z,79.4
2023-08-11T14:39:15.569Z,83.2
2023-08-11T14:42:18.340Z,84.4
2023-08-11T14:52:25.421Z,86.3
2023-08-11T14:56:26.974Z,87.3
2023-08-11T15:04:33.328Z,88.4
2023-08-11T15:06:34.109Z,88.2
2023-08-11T15:08:34.884Z,88.1
2023-08-11T15:10:35.653Z,88.2
2023-08-11T15:12:36.442Z,88.4
2023-08-11T15:28:45.977Z,90.6
2023-08-11T15:30:46.820Z,90.8
2023-08-11T15:32:50.821Z,91
2023-08-11T15:34:51.577Z,91.1
2023-08-11T15:36:52.375Z,91.4
2023-08-11T15:37:54.395Z,91.7
2023-08-11T15:39:55.174Z,91.9
2023-08-11T15:41:56.093Z,92.2
2023-08-11T15:43:56.821Z,92.5
2023-08-11T15:48:01.640Z,93.1
2023-08-11T15:50:02.405Z,93.3
2023-08-11T15:52:03.177Z,93.5
2023-08-11T15:54:03.973Z,94.2
2023-08-11T15:58:05.591Z,95.2
2023-08-11T16:02:11.212Z,96.6
2023-08-11T16:04:11.342Z,97
2023-08-11T16:06:12.079Z,97.8
2023-08-11T16:08:12.884Z,98.3
2023-08-11T16:18:20.202Z,99.9
2023-08-11T16:20:21.025Z,99.9
2023-08-11T16:22:21.856Z,99.9
2023-08-11T16:24:22.672Z,99.9
2023-08-11T16:26:23.528Z,99.9
2023-08-11T16:28:27.578Z,99.9
2023-08-11T16:30:28.442Z,99.9
2023-08-11T16:32:29.338Z,99.9
2023-08-11T16:38:58.681Z,99.9
2023-08-11T16:51:07.130Z,99.9
2023-08-11T16:55:12.094Z,99.9
2023-08-11T16:57:13.058Z,99.9
2023-08-11T16:59:13.885Z,99.9
2023-08-11T17:01:14.805Z,99.9
2023-08-11T17:03:15.780Z,99.9
2023-08-11T17:07:17.469Z,99.9
2023-08-11T17:09:21.619Z,99.9
2023-08-11T17:11:22.499Z,99.9
2023-08-11T17:13:23.406Z,99.9
2023-08-11T17:17:25.217Z,99.9
2023-08-11T17:19:26.125Z,99.9
2023-08-11T17:28:35.086Z,99.9
2023-08-11T17:32:36.939Z,99.9
2023-08-11T17:34:54.225Z,99.9
2023-08-11T17:36:41.982Z,99.9
2023-08-11T17:38:42.905Z,99.9
2023-08-11T17:40:43.817Z,99.9
2023-08-11T17:42:44.769Z,99.9
2023-08-11T17:44:45.677Z,99.9
2023-08-11T17:46:46.692Z,99.9
2023-08-11T17:48:47.543Z,99.9
2023-08-11T17:50:51.664Z,99.9
2023-08-11T17:52:52.611Z,99.9
2023-08-11T17:54:53.521Z,99.9
2023-08-11T17:56:54.453Z,99.9
2023-08-11T17:58:55.359Z,99.9
2023-08-11T18:00:56.316Z,99.9
2023-08-11T18:07:02.723Z,99.9
2023-08-11T18:17:07.439Z,99.9
2023-08-11T18:21:20.574Z,99.9
2023-08-11T18:23:13.436Z,99.9
2023-08-11T18:24:15.511Z,99.9
2023-08-11T18:28:17.401Z,99.9
2023-08-11T18:34:23.447Z,99.9
2023-08-11T18:44:28.214Z,99.9
2023-08-11T18:50:34.311Z,99.9
2023-08-11T18:58:38.189Z,99.9
2023-08-11T19:00:42.352Z,99.9
2023-08-11T19:02:43.393Z,99.9
2023-08-11T19:08:46.222Z,99.9
2023-08-11T19:10:47.196Z,99.9
2023-08-11T19:16:53.339Z,99.9
2023-08-11T19:18:54.306Z,99.9
2023-08-11T19:19:56.381Z,99.9
2023-08-11T19:21:58.383Z,99.9
2023-08-11T19:23:58.358Z,99.9
2023-08-11T19:30:04.492Z,99.9
2023-08-11T19:36:08.917Z,99.9
2023-08-11T19:38:09.900Z,99.9
2023-08-11T19:40:10.896Z,99.9
2023-08-11T19:42:15.086Z,99.9
2023-08-11T19:44:16.056Z,99.9
2023-08-11T19:46:17.066Z,99.9
2023-08-11T19:48:18.026Z,99.9
2023-08-11T19:50:19.021Z,99.9
2023-08-11T19:52:20.008Z,99.9
2023-08-11T19:54:20.968Z,99.9
2023-08-11T19:56:25.166Z,99.9
2023-08-11T19:58:26.135Z,99.9
2023-08-11T20:00:27.133Z,99.9
2023-08-11T20:02:28.126Z,99.9
2023-08-11T20:04:29.116Z,99.9
2023-08-11T20:06:30.061Z,99.9
2023-08-11T20:08:31.056Z,99.9
2023-08-11T20:12:36.219Z,99.9
2023-08-11T20:14:37.204Z,99.9
2023-08-11T20:17:04.996Z,99.9
2023-08-11T20:19:05.963Z,99.9
2023-08-11T20:21:06.954Z,99.9
2023-08-11T20:23:11.139Z,99.9
2023-08-11T20:25:12.141Z,99.9
2023-08-11T20:27:13.279Z,99.9
2023-08-11T20:33:16.039Z,99.9
2023-08-11T20:35:17.021Z,99.9
2023-08-11T20:39:22.202Z,99.9
2023-08-11T20:41:23.209Z,99.9
2023-08-11T20:43:24.167Z,99.9
2023-08-11T20:45:25.145Z,99.9
2023-08-11T20:47:26.161Z,99.9
2023-08-11T20:49:27.115Z,99.9
2023-08-11T20:59:35.308Z,99.9
2023-08-11T21:03:37.284Z,99.9
2023-08-11T21:05:41.476Z,99.9
2023-08-11T21:07:42.460Z,99.9
2023-08-11T21:09:43.488Z,99.9
2023-08-11T21:10:45.573Z,99.9
2023-08-11T21:16:48.599Z,99.9
2023-08-11T21:18:52.774Z,99.9
2023-08-11T21:20:53.776Z,99.9
2023-08-11T21:24:55.781Z,99.9
2023-08-11T21:26:56.832Z,99.9
2023-08-11T21:28:57.788Z,99.9
2023-08-11T21:33:03.514Z,99.9
2023-08-11T21:35:04.461Z,99.9
2023-08-11T21:53:23.166Z,99.9
2023-08-11T21:55:17.737Z,99.9
2023-08-11T21:59:19.779Z,99.9
2023-08-11T22:01:24.007Z,99.9
2023-08-11T22:03:25.016Z,99.9
2023-08-11T22:05:26.014Z,99.9
2023-08-11T22:06:28.113Z,99.9
2023-08-11T22:08:29.151Z,99.9
2023-08-11T22:14:35.400Z,99.9
2023-08-11T22:16:36.421Z,99.9
2023-08-11T22:18:37.405Z,99.9
2023-08-11T22:20:38.447Z,99.9
2023-08-11T22:22:39.429Z,99.9
2023-08-11T22:24:41.885Z,99.9
2023-08-11T22:26:41.477Z,99.9
2023-08-11T22:28:45.678Z,99.9
2023-08-11T22:30:46.776Z,99.9
2023-08-11T22:40:51.784Z,99.9
2023-08-11T22:42:56.019Z,99.9
2023-08-11T22:46:58.027Z,99.9
2023-08-11T22:48:59.071Z,99.9
2023-08-11T23:02:10.523Z,99.9
2023-08-11T23:04:11.608Z,99.9
2023-08-11T23:06:12.550Z,99.9
2023-08-11T23:20:22.923Z,99.9
2023-08-11T23:22:23.935Z,99.9
2023-08-11T23:26:29.208Z,99.9
2023-08-11T23:28:30.224Z,99.9
2023-08-11T23:36:34.335Z,99.9
2023-08-11T23:38:38.574Z,99.9
2023-08-11T23:40:39.607Z,99.9
2023-08-11T23:44:41.639Z,99.9
2023-08-11T23:48:43.843Z,99.9
2023-08-11T23:54:50.014Z,99.9
2023-08-11T23:56:51.026Z,99.9
